Terminal Aerodrome Forecast
Issued by NWS St Louis, MO

Home | Current Version | Previous Version | Graphics & Text | Print | Product List | Glossary On
Versions: 1 2 3 4 5 6 7 8 9 10 11 12 13 14 15 16 17 18 19 20
000
FTUS43 KLSX 302000 AAA
TAFCOU
TAF AMD
KCOU 302005Z 3020/3118 25008KT P6SM VCTS SCT045CB
      TEMPO 3020/3021 VRB12G20KT 3SM -TSRA OVC040CB
     FM310000 18005KT P6SM SCT050 BKN250
     FM311000 17004KT 5SM BR SCT015
     FM311400 20006KT P6SM SCT030=

USA.gov is the U.S. government's official web portal to all federal, state and local government web resources and services.